Time;durP1;ratioP1;P1;durP2;ratioP2;P2;SDS_P1;SDS_P2;PMS_P1;PMS_P2;Temp;Humidity;BMP_temperature;BMP_pressure;BME280_temperature;BME280_humidity;BME280_pressure;Samples;Min_cycle;Max_cycle;Signal;HPM_P1;HPM_P2
2024/02/09 00:04:12;;;;;;;15.55;5.78;;;8.50;99.90;;;8.89;100.00;95878.22;10400898;28;20408;-66
2024/02/09 00:09:15;;;;;;;9.63;5.63;;;8.50;99.90;;;9.08;100.00;95881.34;10399973;28;20234;-66
2024/02/09 00:14:19;;;;;;;12.25;4.93;;;8.60;99.90;;;9.01;100.00;95873.53;10403458;28;20230;-66
2024/02/09 00:19:23;;;;;;;10.90;5.23;;;8.60;99.90;;;8.85;100.00;95873.00;10402370;28;20610;-66
2024/02/09 00:24:27;;;;;;;14.43;6.70;;;8.50;99.90;;;8.88;100.00;95866.31;10401940;28;20304;-66
2024/02/09 00:29:30;;;;;;;11.65;6.45;;;8.50;99.90;;;8.92;100.00;95869.81;10399448;28;20238;-66
2024/02/09 00:34:35;;;;;;;10.32;4.75;;;8.50;99.90;;;8.92;100.00;95859.63;10400753;28;20233;-66
2024/02/09 00:39:38;;;;;;;10.07;4.93;;;8.50;99.90;;;8.94;100.00;95833.38;10400032;28;20705;-65
2024/02/09 00:44:43;;;;;;;11.13;4.88;;;8.50;99.90;;;9.22;100.00;95829.09;10401653;28;20225;-66
2024/02/09 00:49:48;;;;;;;12.30;6.32;;;8.70;99.90;;;9.05;100.00;95820.09;10402304;28;20897;-66
2024/02/09 00:54:52;;;;;;;14.13;5.97;;;8.50;99.90;;;8.84;100.00;95816.06;10395162;28;20238;-65
2024/02/09 00:59:56;;;;;;;7.40;5.07;;;8.40;99.90;;;8.84;100.00;95820.31;10399996;28;20229;-65
2024/02/09 01:05:00;;;;;;;10.38;4.65;;;8.40;99.90;;;8.91;100.00;95807.81;10346856;23;20227;-66
2024/02/09 01:10:05;;;;;;;7.90;4.13;;;8.60;99.90;;;9.10;100.00;95808.34;10284619;28;20227;-65
2024/02/09 02:46:21;;;;;;;9.18;4.20;;;9.00;99.90;;;9.38;100.00;95777.72;10317346;28;20222;-66
2024/02/09 03:07:28;;;;;;;8.25;3.92;;;9.00;99.90;;;9.41;100.00;95741.25;10274132;28;20234;-66
2024/02/09 03:12:38;;;;;;;5.68;3.90;;;9.00;99.90;;;9.45;100.00;95730.31;10274502;28;20227;-66
2024/02/09 03:17:42;;;;;;;6.63;3.97;;;9.00;99.90;;;9.50;100.00;95735.53;10273448;28;20584;-66
2024/02/09 03:22:45;;;;;;;7.38;3.72;;;9.00;99.90;;;9.49;100.00;95732.13;10282476;28;20288;-65
2024/02/09 03:27:51;;;;;;;6.93;3.78;;;9.00;99.90;;;9.47;100.00;95721.91;10319970;28;20321;-66
2024/02/09 03:32:54;;;;;;;3.78;3.30;;;9.00;99.90;;;9.48;100.00;95731.25;10322612;28;20234;-66
2024/02/09 03:37:58;;;;;;;5.18;3.60;;;9.00;99.90;;;9.50;100.00;95717.69;10323658;28;20297;-66
2024/02/09 03:43:02;;;;;;;6.65;3.88;;;9.10;99.90;;;9.47;100.00;95714.25;10328914;28;20235;-66
2024/02/09 03:48:07;;;;;;;5.88;3.63;;;9.00;99.90;;;9.52;100.00;95710.94;10308571;28;20219;-66
2024/02/09 03:53:12;;;;;;;6.78;3.78;;;9.00;99.90;;;9.53;100.00;95715.19;10325097;28;20326;-65
2024/02/09 03:58:17;;;;;;;7.18;3.65;;;9.00;99.90;;;9.52;100.00;95722.00;10325512;28;20316;-66
2024/02/09 04:03:20;;;;;;;3.60;3.28;;;9.00;99.90;;;9.51;100.00;95716.88;10329623;28;20577;-66
2024/02/09 04:08:23;;;;;;;6.30;3.65;;;9.00;99.90;;;9.41;100.00;95718.31;10307412;28;20311;-66
2024/02/09 04:13:28;;;;;;;4.82;3.47;;;8.90;99.90;;;9.39;100.00;95723.38;10326248;28;20643;-66
2024/02/09 04:18:31;;;;;;;5.82;3.78;;;8.90;99.90;;;9.45;100.00;95718.44;10322943;28;20250;-66
2024/02/09 04:23:36;;;;;;;8.25;3.78;;;8.90;99.90;;;9.66;100.00;95710.47;10324820;28;20245;-65
2024/02/09 04:28:41;;;;;;;6.20;4.70;;;9.00;99.90;;;9.54;100.00;95694.84;10324881;28;20310;-66
2024/02/09 04:33:44;;;;;;;4.78;3.70;;;8.90;99.90;;;9.44;100.00;95696.31;10292141;28;20305;-65
2024/02/09 04:38:48;;;;;;;3.85;3.55;;;8.90;99.90;;;9.51;100.00;95688.81;10316727;28;20599;-66
2024/02/09 04:43:52;;;;;;;3.92;3.22;;;9.00;99.90;;;9.48;100.00;95680.25;10321942;28;20231;-65
2024/02/09 04:48:55;;;;;;;4.82;3.40;;;9.00;99.90;;;9.51;100.00;95683.72;10325122;28;20222;-65
2024/02/09 04:53:58;;;;;;;5.82;3.40;;;9.00;99.90;;;9.54;100.00;95681.25;10319336;28;20773;-66
2024/02/09 04:59:07;;;;;;;4.50;3.35;;;9.00;99.90;;;9.73;100.00;95683.44;10320700;28;20550;-66
2024/02/09 05:04:12;;;;;;;3.90;3.50;;;9.20;99.90;;;9.74;100.00;95669.00;10287120;28;20789;-65
2024/02/09 05:09:23;;;;;;;4.40;3.35;;;9.10;99.90;;;9.85;100.00;95675.22;10326482;28;20706;-66
2024/02/09 05:14:29;;;;;;;5.03;3.00;;;9.20;99.90;;;9.78;100.00;95666.53;10326354;28;20226;-65
2024/02/09 05:19:36;;;;;;;2.72;2.53;;;9.20;99.90;;;9.81;100.00;95664.06;10317036;28;20223;-64
2024/02/09 05:24:39;;;;;;;3.10;2.83;;;9.30;99.90;;;9.83;100.00;95667.53;10322943;28;20715;-64
2024/02/09 05:29:44;;;;;;;3.15;2.85;;;9.30;99.90;;;9.84;100.00;95659.06;10324006;28;20754;-64
2024/02/09 05:34:47;;;;;;;3.80;3.10;;;9.40;99.90;;;9.78;100.00;95656.34;10325045;28;20233;-67
2024/02/09 05:39:51;;;;;;;2.85;2.65;;;9.30;99.90;;;9.81;100.00;95658.09;10317380;28;20745;-64
2024/02/09 05:44:56;;;;;;;3.25;2.88;;;9.30;99.90;;;9.78;100.00;95651.22;10323942;28;20223;-64
2024/02/09 05:49:59;;;;;;;2.80;2.60;;;9.30;99.90;;;9.78;100.00;95653.78;10316757;28;20723;-64
2024/02/09 05:55:03;;;;;;;2.80;2.47;;;9.30;99.90;;;9.87;100.00;95654.03;10308903;28;20250;-63
2024/02/09 06:00:15;;;;;;;3.60;2.90;;;9.40;99.90;;;9.88;100.00;95653.19;10280552;28;20267;-64
2024/02/09 06:05:18;;;;;;;3.00;2.28;;;9.40;99.90;;;9.89;100.00;95648.94;10322341;28;20235;-63
2024/02/09 06:10:22;;;;;;;2.78;2.42;;;9.40;99.90;;;9.94;100.00;95649.94;10320089;28;20733;-63
2024/02/09 06:15:26;;;;;;;2.67;2.47;;;9.40;99.90;;;9.86;100.00;95652.28;10316362;28;20559;-64
2024/02/09 06:20:30;;;;;;;2.90;2.60;;;9.40;99.90;;;9.85;100.00;95658.22;10318549;28;20624;-64
2024/02/09 06:25:34;;;;;;;2.30;2.20;;;9.30;99.90;;;9.89;100.00;95643.84;10308199;28;20227;-64
2024/02/09 06:30:40;;;;;;;3.00;2.40;;;9.40;99.90;;;9.79;100.00;95652.97;10315102;28;20963;-64
2024/02/09 06:35:44;;;;;;;3.85;2.70;;;9.30;99.90;;;9.75;100.00;95663.06;10315562;28;20223;-64
2024/02/09 06:40:48;;;;;;;3.15;2.85;;;9.20;99.90;;;9.69;100.00;95664.63;10318264;28;20246;-64
2024/02/09 06:45:52;;;;;;;2.65;2.45;;;9.20;99.90;;;9.66;100.00;95666.25;10321084;28;20781;-64
2024/02/09 06:50:56;;;;;;;3.05;2.63;;;9.20;99.90;;;9.67;100.00;95662.88;10322878;28;20306;-64
2024/02/09 06:56:00;;;;;;;2.45;2.30;;;9.20;99.90;;;9.66;100.00;95663.69;10322807;28;20603;-64
2024/02/09 07:01:08;;;;;;;2.60;2.40;;;9.10;99.90;;;9.63;100.00;95664.47;10323154;28;20350;-64
2024/02/09 07:06:12;;;;;;;2.63;2.42;;;9.10;99.90;;;9.66;100.00;95663.69;10314263;28;20243;-64
2024/02/09 07:11:15;;;;;;;2.63;2.53;;;9.10;99.90;;;9.68;100.00;95672.25;10317315;28;20334;-64
2024/02/09 07:16:20;;;;;;;3.03;2.72;;;9.20;99.90;;;9.66;100.00;95674.75;10317161;28;20253;-63
2024/02/09 07:21:23;;;;;;;3.75;2.88;;;9.10;99.90;;;9.64;100.00;95680.63;10319668;28;20227;-64
2024/02/09 07:26:26;;;;;;;3.75;2.80;;;9.10;99.90;;;9.67;100.00;95675.63;10315948;28;20227;-62
2024/02/09 07:31:31;;;;;;;3.25;3.05;;;9.10;99.90;;;9.68;100.00;95667.16;10289601;28;20234;-64
2024/02/09 07:36:34;;;;;;;9.27;7.60;;;9.20;99.90;;;9.68;100.00;95656.97;10316945;28;20238;-64
2024/02/09 07:41:37;;;;;;;6.60;5.28;;;9.20;99.90;;;9.67;100.00;95660.31;10319019;28;20227;-63
2024/02/09 07:46:44;;;;;;;3.63;2.40;;;9.20;99.90;;;9.61;100.00;95652.50;10320456;28;20231;-64
2024/02/09 07:51:48;;;;;;;2.90;2.70;;;9.10;99.90;;;9.66;100.00;95645.84;10317953;28;20753;-64
2024/02/09 07:56:51;;;;;;;2.83;2.63;;;9.20;99.90;;;9.71;100.00;95646.81;10320703;28;20246;-65
2024/02/09 08:01:56;;;;;;;19.20;13.90;;;9.20;99.90;;;9.73;100.00;95649.41;10319358;28;20242;-64
2024/02/09 08:07:01;;;;;;;112.45;56.58;;;9.20;99.90;;;9.79;100.00;95662.31;10323566;28;20722;-64
2024/02/09 08:12:05;;;;;;;50.42;28.75;;;9.20;99.90;;;9.78;100.00;95653.78;10320098;28;20281;-63
2024/02/09 08:17:13;;;;;;;22.98;13.93;;;9.20;99.90;;;9.68;100.00;95655.25;10278135;28;20231;-64
2024/02/09 08:22:22;;;;;;;16.05;8.45;;;9.10;99.90;;;9.69;100.00;95643.38;10280487;28;20239;-64
2024/02/09 08:27:25;;;;;;;41.92;26.65;;;9.10;99.90;;;9.65;100.00;95649.22;10328901;28;20231;-64
2024/02/09 08:32:29;;;;;;;62.30;43.00;;;9.10;99.90;;;9.69;100.00;95644.22;10302463;28;20232;-63
2024/02/09 08:37:33;;;;;;;7.13;5.22;;;9.20;99.90;;;9.74;100.00;95652.00;10279854;28;20240;-63
2024/02/09 08:42:36;;;;;;;6.88;6.18;;;9.20;99.90;;;9.73;100.00;95649.41;10277810;28;20614;-63
2024/02/09 08:47:40;;;;;;;6.95;6.25;;;9.20;99.90;;;9.66;100.00;95653.50;10279788;28;20596;-63
2024/02/09 08:52:44;;;;;;;6.15;5.55;;;9.20;99.90;;;9.69;100.00;95654.44;10308838;28;20254;-63
2024/02/09 08:57:47;;;;;;;5.63;5.13;;;9.20;99.90;;;9.78;100.00;95661.44;10277617;28;20236;-63
2024/02/09 09:02:52;;;;;;;5.90;5.03;;;9.30;99.90;;;9.88;100.00;95660.00;10277684;28;20240;-63
2024/02/09 09:07:56;;;;;;;7.65;5.47;;;9.30;99.90;;;9.97;100.00;95661.91;10296344;28;20226;-64
2024/02/09 09:12:59;;;;;;;7.43;4.63;;;9.40;99.90;;;10.02;100.00;95665.44;10319024;28;20227;-63
2024/02/09 09:18:05;;;;;;;6.25;5.55;;;9.50;99.90;;;10.04;100.00;95664.59;10330259;28;20238;-63
2024/02/09 09:23:08;;;;;;;5.47;4.78;;;9.50;99.90;;;10.02;100.00;95657.78;10294708;28;20707;-63
2024/02/09 09:28:14;;;;;;;4.07;3.67;;;9.50;99.90;;;10.18;100.00;95664.94;10307468;28;20365;-63
2024/02/09 09:33:18;;;;;;;4.70;4.30;;;9.70;99.90;;;10.29;100.00;95665.22;10315992;28;20446;-63
2024/02/09 09:38:22;;;;;;;5.85;5.20;;;9.80;99.90;;;10.46;100.00;95665.59;10322331;28;20239;-63
2024/02/09 09:43:26;;;;;;;6.10;4.80;;;9.90;99.90;;;10.65;100.00;95662.59;10309997;28;20239;-63
2024/02/09 09:48:33;;;;;;;7.70;5.38;;;10.00;99.90;;;10.90;100.00;95657.97;10301150;28;20223;-63
2024/02/09 09:53:39;;;;;;;4.88;4.35;;;10.30;99.90;;;11.08;100.00;95655.81;10321430;28;20739;-63
2024/02/09 09:58:42;;;;;;;6.35;5.15;;;10.40;99.90;;;11.23;100.00;95645.84;10318346;28;20609;-63
2024/02/09 10:03:48;;;;;;;6.53;5.88;;;10.50;99.90;;;11.37;100.00;95641.00;10321064;28;20239;-63
2024/02/09 10:08:52;;;;;;;6.70;5.68;;;10.70;99.90;;;11.70;100.00;95638.16;10320842;28;20223;-64
2024/02/09 10:13:56;;;;;;;6.47;5.72;;;11.00;99.90;;;11.75;100.00;95633.09;10320442;28;20235;-63
2024/02/09 10:19:01;;;;;;;6.45;5.38;;;11.10;99.90;;;11.86;100.00;95630.75;10320426;28;20320;-64
2024/02/09 10:24:06;;;;;;;6.55;4.45;;;11.20;99.90;;;12.04;100.00;95625.91;10319998;28;20250;-63
2024/02/09 10:29:09;;;;;;;4.32;3.92;;;11.30;99.90;;;12.13;100.00;95640.53;10315253;28;20238;-64
2024/02/09 10:34:14;;;;;;;3.30;3.00;;;11.50;99.90;;;12.26;100.00;95623.66;10289087;28;20722;-64
2024/02/09 10:39:18;;;;;;;3.10;2.90;;;11.60;99.90;;;12.25;100.00;95619.41;10321092;28;20234;-64
2024/02/09 10:44:25;;;;;;;4.30;3.90;;;11.60;99.90;;;12.37;100.00;95617.00;10302557;28;20730;-63
2024/02/09 10:49:30;;;;;;;5.97;4.72;;;11.70;99.90;;;12.32;100.00;95621.19;10309918;28;20618;-64
2024/02/09 10:54:39;;;;;;;6.63;4.63;;;11.70;99.90;;;12.47;100.00;95606.03;10297090;28;20825;-63
2024/02/09 10:59:43;;;;;;;5.50;5.00;;;11.80;99.90;;;12.54;100.00;95600.16;10318168;28;20706;-63
2024/02/09 11:04:48;;;;;;;5.15;4.68;;;11.90;99.90;;;12.49;100.00;95595.81;10318969;28;20238;-63
2024/02/09 11:09:52;;;;;;;5.38;4.60;;;11.90;99.90;;;12.51;100.00;95584.75;10315788;28;20219;-63
2024/02/09 11:14:55;;;;;;;5.53;4.93;;;11.90;99.90;;;12.56;100.00;95575.41;10300837;28;20234;-63
2024/02/09 11:20:00;;;;;;;6.32;5.78;;;12.00;99.90;;;12.72;100.00;95573.03;10311884;28;20235;-63
2024/02/09 11:25:04;;;;;;;6.45;5.78;;;12.10;99.90;;;12.77;100.00;95572.22;10318021;28;20226;-64
2024/02/09 11:30:11;;;;;;;4.53;4.20;;;12.20;99.90;;;13.00;100.00;95567.34;10314849;28;20613;-64
2024/02/09 11:35:16;;;;;;;6.78;5.43;;;12.40;99.90;;;13.19;100.00;95557.25;10316275;28;20555;-64
2024/02/09 11:40:19;;;;;;;5.38;4.68;;;12.50;99.90;;;13.16;100.00;95540.16;10316508;28;20661;-64
2024/02/09 11:45:23;;;;;;;5.15;4.70;;;12.50;99.90;;;13.23;100.00;95543.63;10317657;28;20241;-64
2024/02/09 11:50:28;;;;;;;4.95;4.53;;;12.60;99.90;;;13.34;100.00;95539.50;10303652;28;20308;-64
2024/02/09 11:55:31;;;;;;;5.47;4.97;;;12.80;99.90;;;13.41;100.00;95538.69;10321012;28;20694;-63
2024/02/09 12:00:36;;;;;;;6.53;5.00;;;12.80;99.90;;;13.49;100.00;95531.06;10319043;28;21895;-63
2024/02/09 12:05:41;;;;;;;5.25;4.80;;;12.80;99.90;;;13.55;100.00;95530.25;10313090;28;20230;-64
2024/02/09 12:10:44;;;;;;;5.63;5.03;;;12.90;99.90;;;13.59;100.00;95522.59;10303354;28;20226;-63
2024/02/09 12:15:47;;;;;;;4.55;4.15;;;12.90;99.90;;;13.57;100.00;95518.28;10316238;28;20300;-63
2024/02/09 12:20:54;;;;;;;5.90;4.55;;;12.90;99.90;;;13.67;100.00;95526.06;10312587;28;20231;-63
2024/02/09 12:25:57;;;;;;;6.22;5.18;;;12.90;99.90;;;13.49;100.00;95521.66;10317967;28;20237;-63
2024/02/09 12:31:00;;;;;;;5.38;4.80;;;12.80;99.90;;;13.48;100.00;95514.81;10321776;28;20238;-63
2024/02/09 12:36:09;;;;;;;5.38;4.80;;;12.80;99.90;;;13.42;100.00;95514.75;10306072;28;20622;-65
2024/02/09 12:41:13;;;;;;;4.63;4.22;;;12.70;99.90;;;13.40;100.00;95513.03;10324973;28;20232;-63
2024/02/09 12:46:19;;;;;;;4.93;4.43;;;12.70;99.90;;;13.37;100.00;95513.88;10298144;28;20242;-64
2024/02/09 12:51:24;;;;;;;4.18;3.78;;;12.70;99.90;;;13.34;100.00;95518.97;10323766;28;20690;-64
2024/02/09 12:56:27;;;;;;;5.28;3.80;;;12.70;99.90;;;13.27;100.00;95515.47;10320147;28;20547;-63
2024/02/09 13:01:31;;;;;;;4.63;4.22;;;12.70;99.90;;;13.27;100.00;95514.63;10298590;28;20636;-64
2024/02/09 13:06:35;;;;;;;5.05;4.05;;;12.60;99.90;;;13.20;100.00;95505.13;10326589;28;20246;-63
2024/02/09 13:11:38;;;;;;;3.55;3.22;;;12.50;99.90;;;13.06;100.00;95505.84;10322779;28;20242;-63
2024/02/09 13:16:42;;;;;;;3.33;2.70;;;12.40;99.90;;;13.01;100.00;95507.50;10311158;28;20231;-63
2024/02/09 13:21:54;;;;;;;3.00;2.67;;;12.40;99.90;;;12.88;100.00;95515.94;10320678;28;20227;-63
2024/02/09 13:26:58;;;;;;;2.85;2.65;;;12.20;99.90;;;12.71;100.00;95510.66;10313946;28;20338;-64
2024/02/09 13:32:02;;;;;;;3.10;2.90;;;12.10;99.90;;;12.59;100.00;95502.81;10321921;28;20654;-63
2024/02/09 13:37:07;;;;;;;3.05;2.72;;;12.00;99.90;;;12.53;100.00;95495.06;10304803;28;20227;-63
2024/02/09 13:42:10;;;;;;;3.35;2.90;;;11.90;99.90;;;12.52;100.00;95498.47;10290359;28;20662;-64
2024/02/09 13:47:14;;;;;;;4.60;3.20;;;11.90;99.90;;;12.39;100.00;95503.47;10323182;28;20772;-63
2024/02/09 13:52:19;;;;;;;6.13;4.30;;;11.90;99.90;;;12.35;100.00;95494.00;10321432;28;20230;-63
2024/02/09 13:57:22;;;;;;;6.80;4.55;;;11.80;99.90;;;12.25;100.00;95475.97;10304168;28;20223;-63
2024/02/09 14:02:27;;;;;;;12.00;11.13;;;11.60;99.90;;;12.09;100.00;95475.78;10315816;28;20250;-62
2024/02/09 14:07:32;;;;;;;6.82;5.95;;;11.50;99.90;;;12.00;100.00;95480.78;10303275;28;20235;-63
2024/02/09 14:12:35;;;;;;;4.25;2.72;;;11.40;99.90;;;11.70;100.00;95476.06;10288702;28;20615;-63
2024/02/09 14:17:39;;;;;;;3.67;2.85;;;11.20;99.90;;;11.73;100.00;95474.44;10321274;28;20283;-63
2024/02/09 14:22:44;;;;;;;4.13;3.22;;;11.20;99.90;;;11.66;100.00;95469.19;10307604;28;20231;-64
2024/02/09 14:27:49;;;;;;;3.00;2.70;;;11.10;99.90;;;11.57;100.00;95475.03;10319359;28;20274;-64
2024/02/09 14:32:54;;;;;;;5.88;3.90;;;11.10;99.90;;;11.48;100.00;95460.44;10274644;28;20235;-63
2024/02/09 14:38:00;;;;;;;5.38;4.30;;;11.00;99.90;;;11.54;100.00;95466.47;10351261;23;20654;-62
2024/02/09 14:43:05;;;;;;;4.70;4.15;;;11.10;99.90;;;11.45;100.00;95469.75;10349414;28;20234;-63
2024/02/09 14:48:08;;;;;;;5.63;4.35;;;11.00;99.90;;;11.47;100.00;95474.06;10351915;28;20261;-63
2024/02/09 14:53:13;;;;;;;9.00;6.90;;;11.00;99.90;;;11.52;100.00;95469.00;10355126;28;20222;-63
2024/02/09 14:58:16;;;;;;;7.07;5.60;;;11.00;99.90;;;11.47;100.00;95468.06;10352112;28;20648;-62
2024/02/09 15:03:19;;;;;;;8.68;5.53;;;11.00;99.90;;;11.42;100.00;95469.72;10351780;28;20764;-62
2024/02/09 15:08:24;;;;;;;5.07;4.35;;;11.00;99.90;;;11.32;100.00;95470.41;10348619;28;20246;-62
2024/02/09 15:13:27;;;;;;;4.22;3.80;;;10.90;99.90;;;11.28;100.00;95465.25;10355588;28;20230;-63
2024/02/09 15:18:31;;;;;;;5.65;3.90;;;10.90;99.90;;;11.33;100.00;95464.44;10361398;28;20269;-64
2024/02/09 15:23:35;;;;;;;6.00;4.60;;;10.90;99.90;;;11.31;100.00;95455.91;10362283;28;20227;-63
2024/02/09 15:28:39;;;;;;;6.53;5.88;;;10.80;99.90;;;11.32;100.00;95457.63;10360818;28;20304;-63
2024/02/09 15:33:43;;;;;;;5.47;4.55;;;10.80;99.90;;;11.15;100.00;95455.66;10356196;28;20230;-63
2024/02/09 15:38:48;;;;;;;6.13;4.88;;;10.80;99.90;;;11.09;100.00;95449.59;10354406;28;20239;-63
2024/02/09 15:43:52;;;;;;;4.97;4.50;;;10.70;99.90;;;11.11;100.00;95459.00;10350655;28;20317;-61
2024/02/09 15:48:55;;;;;;;6.53;5.28;;;10.70;99.90;;;11.13;100.00;95457.34;10355215;28;20230;-61
2024/02/09 15:54:00;;;;;;;6.53;5.93;;;10.70;99.90;;;11.08;100.00;95458.97;10355138;28;20280;-63
2024/02/09 15:59:04;;;;;;;8.02;7.22;;;10.70;99.90;;;11.01;100.00;95465.66;10354155;28;20233;-63
2024/02/09 16:04:07;;;;;;;10.25;9.25;;;10.60;99.90;;;10.95;100.00;95457.03;10352245;28;20218;-63
2024/02/09 16:09:12;;;;;;;8.73;7.82;;;10.50;99.90;;;10.91;100.00;95455.28;10355013;28;20235;-63
2024/02/09 16:14:16;;;;;;;8.77;6.70;;;10.50;99.90;;;10.81;100.00;95447.44;10354579;28;20232;-61
2024/02/09 16:19:20;;;;;;;7.78;6.68;;;10.40;99.90;;;10.83;100.00;95462.81;10351989;28;20234;-63
2024/02/09 16:24:25;;;;;;;7.97;7.15;;;10.40;99.90;;;11.02;100.00;95462.28;10354383;28;20237;-65
2024/02/09 16:29:28;;;;;;;11.98;7.85;;;10.50;99.90;;;11.11;100.00;95474.34;10356135;28;20222;-64
2024/02/09 16:34:31;;;;;;;10.75;7.13;;;10.60;99.90;;;11.09;100.00;95476.00;10353943;28;20230;-64
2024/02/09 16:39:37;;;;;;;8.02;6.78;;;10.60;99.90;;;11.08;100.00;95469.19;10364826;28;20322;-64
2024/02/09 16:44:40;;;;;;;9.07;7.50;;;10.50;99.90;;;10.93;100.00;95471.47;10363990;28;20241;-63
2024/02/09 16:49:43;;;;;;;15.90;14.48;;;10.50;99.90;;;10.87;100.00;95468.81;10361349;28;20245;-65
2024/02/09 16:54:48;;;;;;;10.95;9.77;;;10.40;99.90;;;10.81;100.00;95464.47;10361221;28;20421;-62
2024/02/09 16:59:51;;;;;;;12.32;10.75;;;10.40;99.90;;;10.80;100.00;95473.81;10363144;28;20235;-62
2024/02/09 17:04:58;;;;;;;12.43;9.85;;;10.30;99.90;;;10.88;100.00;95480.78;10360873;28;20245;-62
2024/02/09 17:10:03;;;;;;;10.23;7.85;;;10.30;99.90;;;10.75;100.00;95483.09;10367644;28;20314;-62
2024/02/09 17:15:08;;;;;;;8.52;7.63;;;10.30;99.90;;;10.71;100.00;95483.88;10357519;28;20237;-62
2024/02/09 17:20:12;;;;;;;8.77;7.75;;;10.30;99.90;;;10.76;100.00;95486.53;10361731;28;20233;-63
2024/02/09 17:25:17;;;;;;;11.80;9.70;;;10.30;99.90;;;10.70;100.00;95484.72;10349493;28;20234;-63
2024/02/09 17:30:20;;;;;;;10.25;9.25;;;10.20;99.90;;;10.68;100.00;95475.31;10351002;28;20732;-63
2024/02/09 17:35:23;;;;;;;9.80;8.90;;;10.20;99.90;;;10.64;100.00;95471.81;10349260;28;20313;-62
2024/02/09 17:40:29;;;;;;;7.78;7.15;;;10.20;99.90;;;10.57;100.00;95462.34;10347852;28;20745;-63
2024/02/09 17:45:35;;;;;;;7.00;6.35;;;10.10;99.90;;;10.53;100.00;95455.44;10350016;28;20230;-63
2024/02/09 17:50:39;;;;;;;7.85;7.07;;;10.10;99.90;;;10.55;100.00;95453.78;10343348;28;20308;-62
2024/02/09 17:55:44;;;;;;;6.70;6.10;;;10.10;99.90;;;10.55;100.00;95456.34;10349469;28;20226;-62
2024/02/09 18:00:47;;;;;;;8.63;7.80;;;10.10;99.90;;;10.56;100.00;95463.19;10345005;28;20285;-61
2024/02/09 18:05:50;;;;;;;21.65;15.50;;;10.10;99.90;;;10.53;100.00;95460.56;10345387;28;20237;-62
2024/02/09 18:10:55;;;;;;;9.00;8.10;;;10.00;99.90;;;10.43;100.00;95466.34;10348395;28;20228;-62
2024/02/09 18:15:58;;;;;;;12.93;10.70;;;9.90;99.90;;;10.32;100.00;95453.38;10343219;28;20262;-62
2024/02/09 18:21:01;;;;;;;12.95;10.40;;;9.90;99.90;;;10.32;100.00;95454.22;10351143;28;20226;-63
2024/02/09 18:26:06;;;;;;;9.00;8.13;;;9.90;99.90;;;10.35;100.00;95449.16;10346916;28;20226;-63
2024/02/09 18:31:13;;;;;;;11.88;10.70;;;9.90;99.90;;;10.35;100.00;95440.66;10345106;28;20234;-63
2024/02/09 18:36:16;;;;;;;14.98;12.63;;;9.90;99.90;;;10.36;100.00;95445.81;10349969;28;20231;-62
2024/02/09 18:41:21;;;;;;;11.65;10.45;;;9.90;99.90;;;10.29;100.00;95446.50;10347177;28;20257;-63
2024/02/09 18:46:24;;;;;;;10.68;9.63;;;9.80;99.90;;;10.13;100.00;95437.69;10346350;28;20237;-63
2024/02/09 18:51:27;;;;;;;10.55;9.55;;;9.80;99.90;;;10.18;100.00;95435.19;10349559;28;20364;-63
2024/02/09 18:56:31;;;;;;;11.23;9.88;;;9.80;99.90;;;10.15;100.00;95435.13;10350870;28;20234;-64
2024/02/09 19:01:35;;;;;;;11.60;10.40;;;9.70;99.90;;;10.14;100.00;95435.97;10347586;28;20321;-63
2024/02/09 19:06:38;;;;;;;13.82;12.38;;;9.70;99.90;;;10.23;100.00;95443.81;10346923;28;20360;-63
2024/02/09 19:11:43;;;;;;;11.48;10.27;;;9.80;99.90;;;10.19;100.00;95434.38;10343591;28;20229;-63
2024/02/09 19:16:47;;;;;;;15.40;13.75;;;9.80;99.90;;;10.12;100.00;95424.88;10349661;28;20293;-63
2024/02/09 19:21:51;;;;;;;14.38;12.43;;;9.70;99.90;;;10.14;100.00;95425.78;10349588;28;20565;-63
2024/02/09 19:26:56;;;;;;;12.18;10.98;;;9.70;99.90;;;10.12;100.00;95429.97;10349330;28;20319;-63
2024/02/09 19:31:59;;;;;;;11.82;10.68;;;9.70;99.90;;;10.09;100.00;95440.13;10351818;28;20257;-63
2024/02/09 19:37:02;;;;;;;14.50;13.10;;;9.70;99.90;;;10.06;100.00;95435.81;10347931;28;20234;-63
2024/02/09 19:42:07;;;;;;;14.18;12.77;;;9.70;99.90;;;10.13;100.00;95434.28;10351740;28;20232;-63
2024/02/09 19:47:13;;;;;;;14.23;12.50;;;9.60;99.90;;;10.14;100.00;95439.38;10348737;28;20230;-63
2024/02/09 19:52:16;;;;;;;12.10;10.90;;;9.70;99.90;;;10.11;100.00;95428.25;10351445;28;20234;-63
2024/02/09 19:57:20;;;;;;;14.25;12.85;;;9.70;99.90;;;10.12;100.00;95425.72;10346999;28;20230;-63
2024/02/09 20:02:24;;;;;;;14.98;13.52;;;9.60;99.90;;;10.08;100.00;95423.09;10350423;28;20234;-63
2024/02/09 20:07:39;;;;;;;13.88;12.45;;;9.60;99.90;;;10.05;100.00;95406.03;10349953;28;20234;-63
2024/02/09 20:12:43;;;;;;;10.90;10.00;;;9.60;99.90;;;10.04;100.00;95406.00;10345710;28;20238;-63
2024/02/09 20:17:47;;;;;;;11.68;10.68;;;9.50;99.90;;;10.05;100.00;95398.38;10350442;28;20664;-63
2024/02/09 20:22:50;;;;;;;9.90;9.10;;;9.60;99.90;;;10.06;100.00;95406.88;10352417;28;20298;-63
2024/02/09 20:27:56;;;;;;;10.32;9.43;;;9.50;99.90;;;10.05;100.00;95412.84;10354567;28;20766;-63
2024/02/09 20:33:01;;;;;;;11.93;10.77;;;9.50;99.90;;;10.05;100.00;95405.19;10350770;28;20222;-63
2024/02/09 20:38:06;;;;;;;11.77;10.68;;;9.50;99.90;;;10.01;100.00;95405.94;10352635;28;20237;-64
2024/02/09 20:43:11;;;;;;;13.18;11.73;;;9.50;99.90;;;9.98;100.00;95404.19;10352417;28;20238;-63
2024/02/09 20:48:14;;;;;;;11.85;10.88;;;9.40;99.90;;;9.91;100.00;95387.91;10349429;28;20247;-63
2024/02/09 20:53:20;;;;;;;12.82;11.60;;;9.40;99.90;;;9.89;100.00;95381.91;10356127;28;20266;-63
2024/02/09 20:58:26;;;;;;;10.57;9.70;;;9.40;99.90;;;9.86;100.00;95379.28;10356293;28;20264;-63
2024/02/09 21:03:32;;;;;;;9.45;8.65;;;9.30;99.90;;;9.87;100.00;95383.59;10353957;28;20313;-63
2024/02/09 21:08:37;;;;;;;14.07;12.68;;;9.30;99.90;;;9.86;100.00;95381.00;10353274;28;20265;-63
2024/02/09 21:13:42;;;;;;;15.85;13.75;;;9.30;99.90;;;9.82;100.00;95390.28;10361066;28;20755;-63
2024/02/09 21:18:45;;;;;;;18.10;14.63;;;9.30;99.90;;;9.82;100.00;95385.19;10358754;28;20696;-63
2024/02/09 21:23:48;;;;;;;16.45;14.82;;;9.30;99.90;;;9.86;100.00;95389.50;10354538;28;20709;-63
2024/02/09 21:28:53;;;;;;;19.52;17.60;;;9.30;99.90;;;9.88;100.00;95381.88;10358303;28;20253;-63
2024/02/09 21:33:58;;;;;;;23.20;17.90;;;9.30;99.90;;;9.80;100.00;95391.94;10357420;28;20227;-63
2024/02/09 21:39:03;;;;;;;21.52;19.42;;;9.30;99.90;;;9.79;100.00;95390.22;10352630;28;20734;-63
2024/02/09 21:44:08;;;;;;;20.05;18.05;;;9.30;99.90;;;9.82;100.00;95399.63;10357656;28;20230;-63
2024/02/09 21:49:11;;;;;;;43.65;38.35;;;9.30;99.90;;;9.72;100.00;95392.63;10355597;28;20248;-63
2024/02/09 21:54:16;;;;;;;33.45;28.95;;;9.20;99.90;;;9.67;100.00;95390.84;10351306;28;20253;-63
2024/02/09 21:59:21;;;;;;;30.50;22.83;;;9.10;99.90;;;9.63;100.00;95385.63;10356181;28;20231;-63
2024/02/09 22:04:24;;;;;;;20.70;17.58;;;9.10;99.90;;;9.64;100.00;95383.13;10356543;28;20604;-63
2024/02/09 22:09:27;;;;;;;17.58;15.27;;;9.10;99.90;;;9.66;100.00;95372.94;10354916;28;20231;-63
2024/02/09 22:14:33;;;;;;;15.65;14.00;;;9.20;99.90;;;9.66;100.00;95368.69;10352641;28;20226;-64
2024/02/09 22:19:37;;;;;;;15.90;13.65;;;9.10;99.90;;;9.62;100.00;95360.97;10344027;28;20241;-63
2024/02/09 22:24:41;;;;;;;14.63;12.70;;;9.10;99.90;;;9.60;100.00;95353.28;10345982;28;20262;-63
2024/02/09 22:29:46;;;;;;;18.27;14.90;;;9.10;99.90;;;9.58;100.00;95362.59;10346615;28;20646;-64
2024/02/09 22:34:50;;;;;;;23.83;18.02;;;9.00;99.90;;;9.54;100.00;95354.84;10358789;23;20234;-65
2024/02/09 22:39:54;;;;;;;32.08;16.80;;;9.00;99.90;;;9.48;100.00;95351.34;10378389;28;20770;-64
2024/02/09 22:44:58;;;;;;;13.75;12.07;;;9.00;99.90;;;9.58;100.00;95348.97;10382519;28;20230;-64
2024/02/09 22:50:01;;;;;;;14.52;11.18;;;9.00;99.90;;;9.40;100.00;95352.88;10347420;28;20234;-65